sensor_id;sensor_type;location;lat;lon;timestamp;P1;durP1;ratioP1;P2;durP2;ratioP2
14358;SDS011;7263;49.418;11.064;2024-03-17T00:00:31;1.70;;;1.33;;
14358;SDS011;7263;49.418;11.064;2024-03-17T00:03:05;3.23;;;1.80;;
14358;SDS011;7263;49.418;11.064;2024-03-17T00:05:40;1.77;;;1.40;;
14358;SDS011;7263;49.418;11.064;2024-03-17T00:08:10;1.60;;;1.40;;
14358;SDS011;7263;49.418;11.064;2024-03-17T00:10:36;3.57;;;2.00;;
14358;SDS011;7263;49.418;11.064;2024-03-17T00:13:12;2.70;;;1.70;;
14358;SDS011;7263;49.418;11.064;2024-03-17T00:15:41;2.73;;;1.80;;
14358;SDS011;7263;49.418;11.064;2024-03-17T00:18:11;3.53;;;1.93;;
14358;SDS011;7263;49.418;11.064;2024-03-17T00:20:37;3.30;;;1.80;;
14358;SDS011;7263;49.418;11.064;2024-03-17T00:23:06;2.63;;;1.70;;
14358;SDS011;7263;49.418;11.064;2024-03-17T00:25:33;2.93;;;1.53;;
14358;SDS011;7263;49.418;11.064;2024-03-17T00:28:03;3.13;;;1.83;;
14358;SDS011;7263;49.418;11.064;2024-03-17T00:30:32;2.27;;;1.60;;
14358;SDS011;7263;49.418;11.064;2024-03-17T00:32:59;2.17;;;1.50;;
14358;SDS011;7263;49.418;11.064;2024-03-17T00:35:27;2.33;;;1.60;;
14358;SDS011;7263;49.418;11.064;2024-03-17T00:37:58;1.77;;;1.57;;
14358;SDS011;7263;49.418;11.064;2024-03-17T00:40:29;2.60;;;1.60;;
14358;SDS011;7263;49.418;11.064;2024-03-17T00:42:56;2.80;;;1.93;;
14358;SDS011;7263;49.418;11.064;2024-03-17T00:45:22;2.80;;;1.70;;
14358;SDS011;7263;49.418;11.064;2024-03-17T00:47:50;2.20;;;1.50;;
14358;SDS011;7263;49.418;11.064;2024-03-17T00:50:17;2.50;;;1.70;;
14358;SDS011;7263;49.418;11.064;2024-03-17T00:52:47;3.67;;;2.00;;
14358;SDS011;7263;49.418;11.064;2024-03-17T00:55:21;2.93;;;2.23;;
14358;SDS011;7263;49.418;11.064;2024-03-17T00:57:52;2.90;;;1.90;;
14358;SDS011;7263;49.418;11.064;2024-03-17T01:00:20;2.77;;;1.87;;
14358;SDS011;7263;49.418;11.064;2024-03-17T01:02:51;5.73;;;2.93;;
14358;SDS011;7263;49.418;11.064;2024-03-17T01:05:17;2.37;;;1.90;;
14358;SDS011;7263;49.418;11.064;2024-03-17T01:07:44;2.53;;;1.80;;
14358;SDS011;7263;49.418;11.064;2024-03-17T01:10:12;3.43;;;1.83;;
14358;SDS011;7263;49.418;11.064;2024-03-17T01:12:49;3.07;;;2.30;;
14358;SDS011;7263;49.418;11.064;2024-03-17T01:15:17;3.43;;;2.87;;
14358;SDS011;7263;49.418;11.064;2024-03-17T01:17:43;3.83;;;3.43;;
14358;SDS011;7263;49.418;11.064;2024-03-17T01:20:10;4.30;;;3.10;;
14358;SDS011;7263;49.418;11.064;2024-03-17T01:22:36;4.43;;;3.40;;
14358;SDS011;7263;49.418;11.064;2024-03-17T01:25:03;4.30;;;3.23;;
14358;SDS011;7263;49.418;11.064;2024-03-17T01:27:31;5.07;;;3.50;;
14358;SDS011;7263;49.418;11.064;2024-03-17T01:29:58;3.23;;;2.67;;
14358;SDS011;7263;49.418;11.064;2024-03-17T01:32:31;2.87;;;2.20;;
14358;SDS011;7263;49.418;11.064;2024-03-17T01:35:00;2.80;;;2.27;;
14358;SDS011;7263;49.418;11.064;2024-03-17T01:37:31;2.20;;;1.67;;
14358;SDS011;7263;49.418;11.064;2024-03-17T01:39:57;2.90;;;1.73;;
14358;SDS011;7263;49.418;11.064;2024-03-17T01:42:24;5.20;;;1.83;;
14358;SDS011;7263;49.418;11.064;2024-03-17T01:44:54;2.53;;;1.60;;
14358;SDS011;7263;49.418;11.064;2024-03-17T01:47:25;3.67;;;1.50;;
14358;SDS011;7263;49.418;11.064;2024-03-17T01:49:54;2.60;;;1.83;;
14358;SDS011;7263;49.418;11.064;2024-03-17T01:52:20;2.67;;;1.87;;
14358;SDS011;7263;49.418;11.064;2024-03-17T01:54:47;1.90;;;1.53;;
14358;SDS011;7263;49.418;11.064;2024-03-17T01:57:17;2.63;;;1.93;;
14358;SDS011;7263;49.418;11.064;2024-03-17T01:59:46;1.93;;;1.73;;
14358;SDS011;7263;49.418;11.064;2024-03-17T02:02:12;3.73;;;1.70;;
14358;SDS011;7263;49.418;11.064;2024-03-17T02:08:11;3.10;;;2.00;;
14358;SDS011;7263;49.418;11.064;2024-03-17T02:10:37;3.33;;;1.70;;
14358;SDS011;7263;49.418;11.064;2024-03-17T02:13:04;3.47;;;2.27;;
14358;SDS011;7263;49.418;11.064;2024-03-17T02:15:31;4.13;;;2.10;;
14358;SDS011;7263;49.418;11.064;2024-03-17T02:17:57;2.73;;;2.43;;
14358;SDS011;7263;49.418;11.064;2024-03-17T02:20:26;3.27;;;2.10;;
14358;SDS011;7263;49.418;11.064;2024-03-17T02:23:09;5.43;;;2.80;;
14358;SDS011;7263;49.418;11.064;2024-03-17T02:25:44;3.50;;;2.60;;
14358;SDS011;7263;49.418;11.064;2024-03-17T02:28:14;2.63;;;2.40;;
14358;SDS011;7263;49.418;11.064;2024-03-17T02:30:41;3.97;;;2.50;;
14358;SDS011;7263;49.418;11.064;2024-03-17T02:33:10;4.17;;;2.80;;
14358;SDS011;7263;49.418;11.064;2024-03-17T02:35:39;3.63;;;2.67;;
14358;SDS011;7263;49.418;11.064;2024-03-17T02:38:10;3.87;;;2.73;;
14358;SDS011;7263;49.418;11.064;2024-03-17T02:41:02;4.00;;;2.57;;
14358;SDS011;7263;49.418;11.064;2024-03-17T02:43:31;3.50;;;2.70;;
14358;SDS011;7263;49.418;11.064;2024-03-17T02:45:58;4.87;;;3.10;;
14358;SDS011;7263;49.418;11.064;2024-03-17T02:48:25;4.50;;;3.10;;
14358;SDS011;7263;49.418;11.064;2024-03-17T02:51:01;3.60;;;3.20;;
14358;SDS011;7263;49.418;11.064;2024-03-17T02:53:44;3.67;;;3.00;;
14358;SDS011;7263;49.418;11.064;2024-03-17T02:56:11;5.37;;;3.13;;
14358;SDS011;7263;49.418;11.064;2024-03-17T02:58:41;3.23;;;3.00;;
14358;SDS011;7263;49.418;11.064;2024-03-17T03:01:16;3.70;;;3.30;;
14358;SDS011;7263;49.418;11.064;2024-03-17T03:03:45;4.37;;;3.30;;
14358;SDS011;7263;49.418;11.064;2024-03-17T03:06:14;3.73;;;3.33;;
14358;SDS011;7263;49.418;11.064;2024-03-17T03:08:53;4.67;;;3.37;;
14358;SDS011;7263;49.418;11.064;2024-03-17T03:11:28;3.83;;;3.27;;
14358;SDS011;7263;49.418;11.064;2024-03-17T03:13:54;5.23;;;3.57;;
14358;SDS011;7263;49.418;11.064;2024-03-17T03:16:27;4.17;;;3.77;;
14358;SDS011;7263;49.418;11.064;2024-03-17T03:18:57;3.97;;;3.40;;
14358;SDS011;7263;49.418;11.064;2024-03-17T03:21:27;5.23;;;3.70;;
14358;SDS011;7263;49.418;11.064;2024-03-17T03:23:58;5.07;;;3.70;;
14358;SDS011;7263;49.418;11.064;2024-03-17T03:26:41;5.53;;;3.67;;
14358;SDS011;7263;49.418;11.064;2024-03-17T03:29:11;4.67;;;4.03;;
14358;SDS011;7263;49.418;11.064;2024-03-17T03:31:40;4.97;;;4.17;;
14358;SDS011;7263;49.418;11.064;2024-03-17T03:34:09;4.27;;;3.87;;
14358;SDS011;7263;49.418;11.064;2024-03-17T03:36:38;5.00;;;4.50;;
14358;SDS011;7263;49.418;11.064;2024-03-17T03:39:08;4.53;;;4.13;;
14358;SDS011;7263;49.418;11.064;2024-03-17T03:41:42;4.43;;;3.50;;
14358;SDS011;7263;49.418;11.064;2024-03-17T03:44:09;5.77;;;4.20;;
14358;SDS011;7263;49.418;11.064;2024-03-17T03:46:38;4.23;;;3.77;;
14358;SDS011;7263;49.418;11.064;2024-03-17T03:49:05;4.70;;;3.80;;
14358;SDS011;7263;49.418;11.064;2024-03-17T03:51:36;4.60;;;4.10;;
14358;SDS011;7263;49.418;11.064;2024-03-17T03:54:04;4.60;;;4.10;;
14358;SDS011;7263;49.418;11.064;2024-03-17T03:56:40;4.67;;;4.20;;
14358;SDS011;7263;49.418;11.064;2024-03-17T03:59:07;5.10;;;4.07;;
14358;SDS011;7263;49.418;11.064;2024-03-17T04:01:33;5.00;;;3.80;;
14358;SDS011;7263;49.418;11.064;2024-03-17T04:04:06;5.67;;;3.93;;
14358;SDS011;7263;49.418;11.064;2024-03-17T04:06:42;4.73;;;3.90;;
14358;SDS011;7263;49.418;11.064;2024-03-17T04:09:10;5.57;;;3.97;;
14358;SDS011;7263;49.418;11.064;2024-03-17T04:11:42;5.10;;;4.20;;
14358;SDS011;7263;49.418;11.064;2024-03-17T04:14:09;5.33;;;3.90;;
14358;SDS011;7263;49.418;11.064;2024-03-17T04:16:39;5.20;;;4.37;;
14358;SDS011;7263;49.418;11.064;2024-03-17T04:19:10;4.80;;;3.73;;
14358;SDS011;7263;49.418;11.064;2024-03-17T04:21:41;4.90;;;3.87;;
14358;SDS011;7263;49.418;11.064;2024-03-17T04:24:24;4.43;;;3.83;;
14358;SDS011;7263;49.418;11.064;2024-03-17T04:26:55;4.50;;;4.10;;
14358;SDS011;7263;49.418;11.064;2024-03-17T04:29:22;5.03;;;4.33;;
14358;SDS011;7263;49.418;11.064;2024-03-17T04:31:52;4.97;;;4.47;;
14358;SDS011;7263;49.418;11.064;2024-03-17T04:34:19;4.70;;;4.13;;
14358;SDS011;7263;49.418;11.064;2024-03-17T04:36:46;4.30;;;3.67;;
14358;SDS011;7263;49.418;11.064;2024-03-17T04:39:13;4.77;;;4.10;;
14358;SDS011;7263;49.418;11.064;2024-03-17T04:41:44;5.03;;;4.20;;
14358;SDS011;7263;49.418;11.064;2024-03-17T04:44:15;6.50;;;4.93;;
14358;SDS011;7263;49.418;11.064;2024-03-17T04:46:42;5.33;;;4.83;;
14358;SDS011;7263;49.418;11.064;2024-03-17T04:49:11;5.27;;;4.67;;
14358;SDS011;7263;49.418;11.064;2024-03-17T04:51:45;5.47;;;4.43;;
14358;SDS011;7263;49.418;11.064;2024-03-17T04:54:14;6.27;;;4.30;;
14358;SDS011;7263;49.418;11.064;2024-03-17T04:56:45;5.73;;;4.73;;
14358;SDS011;7263;49.418;11.064;2024-03-17T04:59:18;5.23;;;4.67;;
14358;SDS011;7263;49.418;11.064;2024-03-17T05:01:45;5.83;;;4.77;;
14358;SDS011;7263;49.418;11.064;2024-03-17T05:04:11;5.00;;;4.60;;
14358;SDS011;7263;49.418;11.064;2024-03-17T05:06:41;5.87;;;4.77;;
14358;SDS011;7263;49.418;11.064;2024-03-17T05:09:16;5.37;;;4.87;;
14358;SDS011;7263;49.418;11.064;2024-03-17T05:11:52;5.70;;;4.80;;
14358;SDS011;7263;49.418;11.064;2024-03-17T05:14:24;5.67;;;4.87;;
14358;SDS011;7263;49.418;11.064;2024-03-17T05:16:51;5.30;;;4.80;;
14358;SDS011;7263;49.418;11.064;2024-03-17T05:19:18;5.77;;;4.90;;
14358;SDS011;7263;49.418;11.064;2024-03-17T05:21:45;5.53;;;4.77;;
14358;SDS011;7263;49.418;11.064;2024-03-17T05:24:13;6.47;;;5.10;;
14358;SDS011;7263;49.418;11.064;2024-03-17T05:26:48;5.57;;;5.07;;
14358;SDS011;7263;49.418;11.064;2024-03-17T05:29:18;6.10;;;5.47;;
14358;SDS011;7263;49.418;11.064;2024-03-17T05:31:44;5.37;;;4.87;;
14358;SDS011;7263;49.418;11.064;2024-03-17T05:34:14;6.83;;;5.30;;
14358;SDS011;7263;49.418;11.064;2024-03-17T05:36:44;5.63;;;5.07;;
14358;SDS011;7263;49.418;11.064;2024-03-17T05:39:13;7.17;;;5.43;;
14358;SDS011;7263;49.418;11.064;2024-03-17T05:41:40;6.87;;;5.83;;
14358;SDS011;7263;49.418;11.064;2024-03-17T05:44:18;5.40;;;4.90;;
14358;SDS011;7263;49.418;11.064;2024-03-17T05:46:45;5.30;;;4.80;;
14358;SDS011;7263;49.418;11.064;2024-03-17T05:49:21;5.10;;;4.60;;
14358;SDS011;7263;49.418;11.064;2024-03-17T05:51:56;5.60;;;5.00;;
14358;SDS011;7263;49.418;11.064;2024-03-17T05:54:23;7.07;;;5.57;;
14358;SDS011;7263;49.418;11.064;2024-03-17T05:56:50;6.60;;;5.00;;
14358;SDS011;7263;49.418;11.064;2024-03-17T05:59:19;6.23;;;5.50;;
14358;SDS011;7263;49.418;11.064;2024-03-17T06:01:45;5.90;;;5.23;;
14358;SDS011;7263;49.418;11.064;2024-03-17T06:04:12;6.57;;;5.53;;
14358;SDS011;7263;49.418;11.064;2024-03-17T06:06:49;5.23;;;4.73;;
14358;SDS011;7263;49.418;11.064;2024-03-17T06:09:19;5.83;;;5.20;;
14358;SDS011;7263;49.418;11.064;2024-03-17T06:11:57;6.77;;;5.43;;
14358;SDS011;7263;49.418;11.064;2024-03-17T06:14:28;6.43;;;5.37;;
14358;SDS011;7263;49.418;11.064;2024-03-17T06:16:59;5.70;;;5.10;;
14358;SDS011;7263;49.418;11.064;2024-03-17T06:19:35;7.03;;;5.57;;
14358;SDS011;7263;49.418;11.064;2024-03-17T06:22:05;6.00;;;5.40;;
14358;SDS011;7263;49.418;11.064;2024-03-17T06:24:34;5.83;;;4.90;;
14358;SDS011;7263;49.418;11.064;2024-03-17T06:27:03;6.27;;;5.10;;
14358;SDS011;7263;49.418;11.064;2024-03-17T06:29:43;6.20;;;5.10;;
14358;SDS011;7263;49.418;11.064;2024-03-17T06:32:11;6.00;;;5.40;;
14358;SDS011;7263;49.418;11.064;2024-03-17T06:34:40;5.40;;;4.83;;
14358;SDS011;7263;49.418;11.064;2024-03-17T06:37:08;6.77;;;5.73;;
14358;SDS011;7263;49.418;11.064;2024-03-17T06:39:47;7.10;;;6.37;;
14358;SDS011;7263;49.418;11.064;2024-03-17T06:42:17;8.77;;;6.67;;
14358;SDS011;7263;49.418;11.064;2024-03-17T06:44:45;5.00;;;4.50;;
14358;SDS011;7263;49.418;11.064;2024-03-17T06:47:17;7.00;;;5.30;;
14358;SDS011;7263;49.418;11.064;2024-03-17T06:49:44;5.20;;;4.70;;
14358;SDS011;7263;49.418;11.064;2024-03-17T06:52:24;5.60;;;4.77;;
14358;SDS011;7263;49.418;11.064;2024-03-17T06:54:50;7.13;;;5.07;;
14358;SDS011;7263;49.418;11.064;2024-03-17T06:57:29;5.83;;;4.73;;
14358;SDS011;7263;49.418;11.064;2024-03-17T07:03:25;6.03;;;5.43;;
14358;SDS011;7263;49.418;11.064;2024-03-17T07:05:55;5.53;;;5.03;;
14358;SDS011;7263;49.418;11.064;2024-03-17T07:08:23;5.90;;;4.43;;
14358;SDS011;7263;49.418;11.064;2024-03-17T07:11:06;6.13;;;4.70;;
14358;SDS011;7263;49.418;11.064;2024-03-17T07:13:36;5.63;;;5.03;;
14358;SDS011;7263;49.418;11.064;2024-03-17T07:16:06;7.97;;;5.00;;
14358;SDS011;7263;49.418;11.064;2024-03-17T07:18:42;7.17;;;5.33;;
14358;SDS011;7263;49.418;11.064;2024-03-17T07:21:11;6.67;;;4.67;;
14358;SDS011;7263;49.418;11.064;2024-03-17T07:23:38;6.07;;;4.83;;
14358;SDS011;7263;49.418;11.064;2024-03-17T07:26:07;6.30;;;4.57;;
14358;SDS011;7263;49.418;11.064;2024-03-17T07:28:34;7.13;;;5.33;;
14358;SDS011;7263;49.418;11.064;2024-03-17T07:31:08;5.00;;;4.50;;
14358;SDS011;7263;49.418;11.064;2024-03-17T07:33:37;6.67;;;5.07;;
14358;SDS011;7263;49.418;11.064;2024-03-17T07:36:04;5.57;;;4.77;;
14358;SDS011;7263;49.418;11.064;2024-03-17T07:38:40;6.73;;;4.60;;
14358;SDS011;7263;49.418;11.064;2024-03-17T07:41:10;6.33;;;5.50;;
14358;SDS011;7263;49.418;11.064;2024-03-17T07:43:39;7.37;;;5.10;;
14358;SDS011;7263;49.418;11.064;2024-03-17T07:46:12;6.50;;;5.50;;
14358;SDS011;7263;49.418;11.064;2024-03-17T07:48:43;7.60;;;4.80;;
14358;SDS011;7263;49.418;11.064;2024-03-17T07:51:14;6.47;;;4.80;;
14358;SDS011;7263;49.418;11.064;2024-03-17T07:53:42;5.17;;;4.53;;
14358;SDS011;7263;49.418;11.064;2024-03-17T07:56:14;6.43;;;5.20;;
14358;SDS011;7263;49.418;11.064;2024-03-17T07:58:41;4.90;;;4.03;;
14358;SDS011;7263;49.418;11.064;2024-03-17T08:01:10;5.93;;;4.30;;
14358;SDS011;7263;49.418;11.064;2024-03-17T08:03:38;5.30;;;4.27;;
14358;SDS011;7263;49.418;11.064;2024-03-17T08:06:12;5.33;;;4.40;;
14358;SDS011;7263;49.418;11.064;2024-03-17T08:08:41;8.77;;;4.60;;
14358;SDS011;7263;49.418;11.064;2024-03-17T08:11:13;5.37;;;4.70;;
14358;SDS011;7263;49.418;11.064;2024-03-17T08:13:43;6.10;;;4.53;;
14358;SDS011;7263;49.418;11.064;2024-03-17T08:16:10;4.97;;;4.20;;
14358;SDS011;7263;49.418;11.064;2024-03-17T08:18:37;5.50;;;4.17;;
14358;SDS011;7263;49.418;11.064;2024-03-17T08:21:07;4.37;;;3.97;;
14358;SDS011;7263;49.418;11.064;2024-03-17T08:23:35;4.47;;;3.80;;
14358;SDS011;7263;49.418;11.064;2024-03-17T08:26:09;3.53;;;3.17;;
14358;SDS011;7263;49.418;11.064;2024-03-17T08:28:39;3.70;;;3.30;;
14358;SDS011;7263;49.418;11.064;2024-03-17T08:31:06;3.53;;;3.00;;
14358;SDS011;7263;49.418;11.064;2024-03-17T08:33:33;3.50;;;2.63;;
14358;SDS011;7263;49.418;11.064;2024-03-17T08:36:00;3.80;;;2.90;;
14358;SDS011;7263;49.418;11.064;2024-03-17T08:38:32;3.20;;;2.67;;
14358;SDS011;7263;49.418;11.064;2024-03-17T08:41:08;4.33;;;2.97;;
14358;SDS011;7263;49.418;11.064;2024-03-17T08:43:36;3.93;;;3.53;;
14358;SDS011;7263;49.418;11.064;2024-03-17T08:46:04;4.30;;;3.77;;
14358;SDS011;7263;49.418;11.064;2024-03-17T08:48:35;3.20;;;3.00;;
14358;SDS011;7263;49.418;11.064;2024-03-17T08:51:07;3.83;;;2.90;;
14358;SDS011;7263;49.418;11.064;2024-03-17T08:53:35;3.57;;;3.00;;
14358;SDS011;7263;49.418;11.064;2024-03-17T08:56:06;3.07;;;2.77;;
14358;SDS011;7263;49.418;11.064;2024-03-17T08:58:37;4.30;;;3.13;;
14358;SDS011;7263;49.418;11.064;2024-03-17T09:01:04;3.10;;;2.80;;
14358;SDS011;7263;49.418;11.064;2024-03-17T09:03:35;4.40;;;3.35;;
14358;SDS011;7263;49.418;11.064;2024-03-17T09:06:15;3.83;;;3.33;;
14358;SDS011;7263;49.418;11.064;2024-03-17T09:08:44;4.13;;;3.28;;
14358;SDS011;7263;49.418;11.064;2024-03-17T09:11:17;4.32;;;3.20;;
14358;SDS011;7263;49.418;11.064;2024-03-17T09:13:50;4.03;;;3.00;;
14358;SDS011;7263;49.418;11.064;2024-03-17T09:16:33;3.45;;;2.90;;
14358;SDS011;7263;49.418;11.064;2024-03-17T09:19:00;2.90;;;2.60;;
14358;SDS011;7263;49.418;11.064;2024-03-17T09:21:30;2.92;;;2.63;;
14358;SDS011;7263;49.418;11.064;2024-03-17T09:23:56;3.05;;;2.70;;
14358;SDS011;7263;49.418;11.064;2024-03-17T09:26:32;2.92;;;2.63;;
14358;SDS011;7263;49.418;11.064;2024-03-17T09:28:59;3.15;;;2.50;;
14358;SDS011;7263;49.418;11.064;2024-03-17T09:31:26;3.45;;;2.40;;
14358;SDS011;7263;49.418;11.064;2024-03-17T09:34:06;2.95;;;2.38;;
14358;SDS011;7263;49.418;11.064;2024-03-17T09:36:36;2.80;;;2.50;;
14358;SDS011;7263;49.418;11.064;2024-03-17T09:39:05;2.92;;;2.55;;
14358;SDS011;7263;49.418;11.064;2024-03-17T09:41:45;3.33;;;2.47;;
14358;SDS011;7263;49.418;11.064;2024-03-17T09:44:13;3.20;;;2.80;;
14358;SDS011;7263;49.418;11.064;2024-03-17T09:46:40;3.67;;;2.70;;
14358;SDS011;7263;49.418;11.064;2024-03-17T09:49:09;3.43;;;3.13;;
14358;SDS011;7263;49.418;11.064;2024-03-17T09:51:41;3.40;;;2.90;;
14358;SDS011;7263;49.418;11.064;2024-03-17T09:54:15;4.40;;;3.50;;
14358;SDS011;7263;49.418;11.064;2024-03-17T09:56:47;4.60;;;3.30;;
14358;SDS011;7263;49.418;11.064;2024-03-17T09:59:19;4.37;;;3.43;;
14358;SDS011;7263;49.418;11.064;2024-03-17T10:01:46;3.60;;;2.88;;
14358;SDS011;7263;49.418;11.064;2024-03-17T10:04:33;3.78;;;3.38;;
14358;SDS011;7263;49.418;11.064;2024-03-17T10:06:59;5.03;;;3.25;;
14358;SDS011;7263;49.418;11.064;2024-03-17T10:09:27;4.43;;;3.30;;
14358;SDS011;7263;49.418;11.064;2024-03-17T10:14:58;3.67;;;2.85;;
14358;SDS011;7263;49.418;11.064;2024-03-17T10:17:30;6.32;;;3.20;;
14358;SDS011;7263;49.418;11.064;2024-03-17T10:20:16;4.13;;;2.85;;
14358;SDS011;7263;49.418;11.064;2024-03-17T10:23:00;4.38;;;3.45;;
14358;SDS011;7263;49.418;11.064;2024-03-17T10:25:29;3.85;;;3.45;;
14358;SDS011;7263;49.418;11.064;2024-03-17T10:27:58;3.50;;;3.20;;
14358;SDS011;7263;49.418;11.064;2024-03-17T10:30:26;5.15;;;3.42;;
14358;SDS011;7263;49.418;11.064;2024-03-17T10:32:55;4.13;;;3.60;;
14358;SDS011;7263;49.418;11.064;2024-03-17T10:35:29;3.75;;;3.20;;
14358;SDS011;7263;49.418;11.064;2024-03-17T10:37:58;3.75;;;3.20;;
14358;SDS011;7263;49.418;11.064;2024-03-17T10:40:27;4.03;;;3.08;;
14358;SDS011;7263;49.418;11.064;2024-03-17T10:42:56;3.47;;;3.15;;
14358;SDS011;7263;49.418;11.064;2024-03-17T10:45:24;4.23;;;2.90;;
14358;SDS011;7263;49.418;11.064;2024-03-17T10:47:52;3.58;;;3.10;;
14358;SDS011;7263;49.418;11.064;2024-03-17T10:50:19;3.42;;;3.00;;
14358;SDS011;7263;49.418;11.064;2024-03-17T10:52:49;3.05;;;2.72;;
14358;SDS011;7263;49.418;11.064;2024-03-17T10:55:20;4.03;;;3.03;;
14358;SDS011;7263;49.418;11.064;2024-03-17T10:57:49;3.45;;;2.80;;
14358;SDS011;7263;49.418;11.064;2024-03-17T11:00:17;3.90;;;3.05;;
14358;SDS011;7263;49.418;11.064;2024-03-17T11:02:49;6.05;;;3.20;;
14358;SDS011;7263;49.418;11.064;2024-03-17T11:05:24;3.78;;;3.38;;
14358;SDS011;7263;49.418;11.064;2024-03-17T11:07:54;3.67;;;3.15;;
14358;SDS011;7263;49.418;11.064;2024-03-17T11:10:27;4.20;;;3.08;;
14358;SDS011;7263;49.418;11.064;2024-03-17T11:12:55;3.45;;;2.78;;
14358;SDS011;7263;49.418;11.064;2024-03-17T11:15:39;3.05;;;2.75;;
14358;SDS011;7263;49.418;11.064;2024-03-17T11:21:20;3.13;;;2.83;;
14358;SDS011;7263;49.418;11.064;2024-03-17T11:23:56;3.58;;;2.88;;
14358;SDS011;7263;49.418;11.064;2024-03-17T11:26:28;3.65;;;2.80;;
14358;SDS011;7263;49.418;11.064;2024-03-17T11:28:57;3.72;;;2.88;;
14358;SDS011;7263;49.418;11.064;2024-03-17T11:31:35;4.13;;;3.00;;
14358;SDS011;7263;49.418;11.064;2024-03-17T11:34:07;4.60;;;3.45;;
14358;SDS011;7263;49.418;11.064;2024-03-17T11:36:37;3.50;;;3.15;;
14358;SDS011;7263;49.418;11.064;2024-03-17T11:39:04;3.78;;;3.20;;
14358;SDS011;7263;49.418;11.064;2024-03-17T11:41:45;3.72;;;2.92;;
14358;SDS011;7263;49.418;11.064;2024-03-17T11:44:24;3.95;;;3.08;;
14358;SDS011;7263;49.418;11.064;2024-03-17T11:46:53;3.13;;;2.83;;
14358;SDS011;7263;49.418;11.064;2024-03-17T11:49:21;4.72;;;3.58;;
14358;SDS011;7263;49.418;11.064;2024-03-17T11:51:49;5.88;;;3.08;;
14358;SDS011;7263;49.418;11.064;2024-03-17T11:54:15;4.15;;;3.10;;
14358;SDS011;7263;49.418;11.064;2024-03-17T11:56:47;3.53;;;3.22;;
14358;SDS011;7263;49.418;11.064;2024-03-17T11:59:19;3.25;;;2.95;;
14358;SDS011;7263;49.418;11.064;2024-03-17T12:01:53;3.42;;;2.92;;
14358;SDS011;7263;49.418;11.064;2024-03-17T12:04:25;4.22;;;2.90;;
14358;SDS011;7263;49.418;11.064;2024-03-17T12:06:51;3.05;;;2.75;;
14358;SDS011;7263;49.418;11.064;2024-03-17T12:09:19;2.85;;;2.55;;
14358;SDS011;7263;49.418;11.064;2024-03-17T12:11:49;3.58;;;3.22;;
14358;SDS011;7263;49.418;11.064;2024-03-17T12:14:21;4.10;;;3.22;;
14358;SDS011;7263;49.418;11.064;2024-03-17T12:16:50;3.97;;;3.33;;
14358;SDS011;7263;49.418;11.064;2024-03-17T12:19:25;4.07;;;2.97;;
14358;SDS011;7263;49.418;11.064;2024-03-17T12:21:55;4.60;;;3.60;;
14358;SDS011;7263;49.418;11.064;2024-03-17T12:24:22;4.22;;;3.80;;
14358;SDS011;7263;49.418;11.064;2024-03-17T12:26:56;7.18;;;5.55;;
14358;SDS011;7263;49.418;11.064;2024-03-17T12:29:25;3.70;;;3.15;;
14358;SDS011;7263;49.418;11.064;2024-03-17T12:31:55;5.47;;;3.53;;
14358;SDS011;7263;49.418;11.064;2024-03-17T12:34:22;12.80;;;4.10;;
14358;SDS011;7263;49.418;11.064;2024-03-17T12:36:53;7.18;;;4.60;;
14358;SDS011;7263;49.418;11.064;2024-03-17T12:39:21;6.13;;;4.95;;
14358;SDS011;7263;49.418;11.064;2024-03-17T12:44:50;5.35;;;3.75;;
14358;SDS011;7263;49.418;11.064;2024-03-17T12:47:33;4.07;;;3.40;;
14358;SDS011;7263;49.418;11.064;2024-03-17T12:50:08;4.10;;;3.28;;
14358;SDS011;7263;49.418;11.064;2024-03-17T12:52:51;5.72;;;4.50;;
14358;SDS011;7263;49.418;11.064;2024-03-17T12:55:24;4.45;;;4.05;;
14358;SDS011;7263;49.418;11.064;2024-03-17T12:58:17;5.45;;;3.78;;
14358;SDS011;7263;49.418;11.064;2024-03-17T13:01:02;3.50;;;3.20;;
14358;SDS011;7263;49.418;11.064;2024-03-17T13:03:36;4.05;;;3.65;;
14358;SDS011;7263;49.418;11.064;2024-03-17T13:06:05;3.92;;;3.50;;
14358;SDS011;7263;49.418;11.064;2024-03-17T13:08:42;4.65;;;3.70;;
14358;SDS011;7263;49.418;11.064;2024-03-17T13:11:12;5.57;;;3.72;;
14358;SDS011;7263;49.418;11.064;2024-03-17T13:13:42;4.30;;;3.63;;
14358;SDS011;7263;49.418;11.064;2024-03-17T13:16:21;3.97;;;3.53;;
14358;SDS011;7263;49.418;11.064;2024-03-17T13:19:00;4.22;;;3.35;;
14358;SDS011;7263;49.418;11.064;2024-03-17T13:21:34;3.65;;;3.13;;
14358;SDS011;7263;49.418;11.064;2024-03-17T13:24:14;3.25;;;2.95;;
14358;SDS011;7263;49.418;11.064;2024-03-17T13:26:41;4.90;;;3.30;;
14358;SDS011;7263;49.418;11.064;2024-03-17T13:29:15;4.38;;;4.03;;
14358;SDS011;7263;49.418;11.064;2024-03-17T13:31:42;4.33;;;3.17;;
14358;SDS011;7263;49.418;11.064;2024-03-17T13:34:09;4.97;;;3.92;;
14358;SDS011;7263;49.418;11.064;2024-03-17T13:36:36;3.65;;;3.30;;
14358;SDS011;7263;49.418;11.064;2024-03-17T13:39:06;4.55;;;3.20;;
14358;SDS011;7263;49.418;11.064;2024-03-17T13:41:36;7.43;;;4.55;;
14358;SDS011;7263;49.418;11.064;2024-03-17T13:44:14;4.43;;;3.90;;
14358;SDS011;7263;49.418;11.064;2024-03-17T13:46:44;5.70;;;3.57;;
14358;SDS011;7263;49.418;11.064;2024-03-17T13:49:10;4.88;;;3.75;;
14358;SDS011;7263;49.418;11.064;2024-03-17T13:51:37;3.97;;;3.00;;
14358;SDS011;7263;49.418;11.064;2024-03-17T13:54:11;6.03;;;3.20;;
14358;SDS011;7263;49.418;11.064;2024-03-17T13:56:39;5.18;;;3.20;;
14358;SDS011;7263;49.418;11.064;2024-03-17T13:59:13;3.53;;;3.10;;
14358;SDS011;7263;49.418;11.064;2024-03-17T14:01:43;5.07;;;3.45;;
14358;SDS011;7263;49.418;11.064;2024-03-17T14:04:17;3.92;;;3.08;;
14358;SDS011;7263;49.418;11.064;2024-03-17T14:06:45;3.13;;;2.67;;
14358;SDS011;7263;49.418;11.064;2024-03-17T14:09:20;3.67;;;2.78;;
14358;SDS011;7263;49.418;11.064;2024-03-17T14:11:49;3.22;;;2.92;;
14358;SDS011;7263;49.418;11.064;2024-03-17T14:14:22;2.90;;;2.60;;
14358;SDS011;7263;49.418;11.064;2024-03-17T14:16:58;4.10;;;2.63;;
14358;SDS011;7263;49.418;11.064;2024-03-17T14:19:26;3.72;;;2.75;;
14358;SDS011;7263;49.418;11.064;2024-03-17T14:22:03;2.97;;;2.27;;
14358;SDS011;7263;49.418;11.064;2024-03-17T14:24:33;2.88;;;2.67;;
14358;SDS011;7263;49.418;11.064;2024-03-17T14:27:11;3.57;;;2.97;;
14358;SDS011;7263;49.418;11.064;2024-03-17T14:29:43;3.73;;;3.37;;
14358;SDS011;7263;49.418;11.064;2024-03-17T14:32:24;2.83;;;2.50;;
14358;SDS011;7263;49.418;11.064;2024-03-17T14:34:54;3.23;;;2.87;;
14358;SDS011;7263;49.418;11.064;2024-03-17T14:37:21;3.20;;;2.90;;
14358;SDS011;7263;49.418;11.064;2024-03-17T14:39:51;4.50;;;2.80;;
14358;SDS011;7263;49.418;11.064;2024-03-17T14:42:35;4.57;;;2.90;;
14358;SDS011;7263;49.418;11.064;2024-03-17T14:45:07;3.53;;;2.90;;
14358;SDS011;7263;49.418;11.064;2024-03-17T14:47:34;4.30;;;3.00;;
14358;SDS011;7263;49.418;11.064;2024-03-17T14:50:01;7.63;;;5.70;;
14358;SDS011;7263;49.418;11.064;2024-03-17T14:52:29;3.87;;;2.93;;
14358;SDS011;7263;49.418;11.064;2024-03-17T14:55:00;4.17;;;2.67;;
14358;SDS011;7263;49.418;11.064;2024-03-17T14:57:38;3.93;;;2.63;;
14358;SDS011;7263;49.418;11.064;2024-03-17T15:00:10;3.93;;;3.20;;
14358;SDS011;7263;49.418;11.064;2024-03-17T15:02:45;3.83;;;2.87;;
14358;SDS011;7263;49.418;11.064;2024-03-17T15:05:13;4.97;;;2.70;;
14358;SDS011;7263;49.418;11.064;2024-03-17T15:07:40;2.83;;;2.63;;
14358;SDS011;7263;49.418;11.064;2024-03-17T15:10:13;6.77;;;2.87;;
14358;SDS011;7263;49.418;11.064;2024-03-17T15:12:44;3.20;;;2.60;;
14358;SDS011;7263;49.418;11.064;2024-03-17T15:15:11;4.03;;;2.97;;
14358;SDS011;7263;49.418;11.064;2024-03-17T15:17:41;4.30;;;2.93;;
14358;SDS011;7263;49.418;11.064;2024-03-17T15:20:12;3.37;;;2.40;;
14358;SDS011;7263;49.418;11.064;2024-03-17T15:22:46;3.20;;;2.90;;
14358;SDS011;7263;49.418;11.064;2024-03-17T15:25:19;4.37;;;3.23;;